<?xml version="1.0" encoding="utf-8"?>
<gpx xmlns:xsi="http://www.w3.org/2001/XMLSchema-instance" xmlns:xsd="http://www.w3.org/2001/XMLSchema" version="1.1" creator="Shapelink.com" xmlns="http://www.topografix.com/GPX/1/1" xmlns:gpxtpx="http://www.garmin.com/xmlschemas/TrackPointExtension/v1">
  <metadata>
    <name>Løping 6.06 km, 2012-05-11</name>
    <desc></desc>
    <author><name>Mikael Blom</name></author> 
    <time>2012-05-11T20:52:21Z</time>
  </metadata>
  <trk>
    <name>Løping 6.06 km, 2012-05-11</name>
    <trkseg>
      <trkpt lat="59.9789516" lon="17.739243">
        <ele>36.6675</ele>
        <time>2012-05-11T20:52:21Z</time>
      </trkpt>
      <trkpt lat="59.979135" lon="17.739164">
        <ele>37.6287</ele>
        <time>2012-05-11T20:52:27Z</time>
      </trkpt>
      <trkpt lat="59.9793226" lon="17.7390192">
        <ele>40.0321</ele>
        <time>2012-05-11T20:52:34Z</time>
      </trkpt>
      <trkpt lat="59.9794462" lon="17.7389585">
        <ele>41.9547</ele>
        <time>2012-05-11T20:52:39Z</time>
      </trkpt>
      <trkpt lat="59.979613" lon="17.7388848">
        <ele>46.7612</ele>
        <time>2012-05-11T20:52:44Z</time>
      </trkpt>
      <trkpt lat="59.9797369" lon="17.7388273">
        <ele>51.5679</ele>
        <time>2012-05-11T20:52:48Z</time>
      </trkpt>
      <trkpt lat="59.9798818" lon="17.7387685">
        <ele>56.3745</ele>
        <time>2012-05-11T20:52:54Z</time>
      </trkpt>
      <trkpt lat="59.9799985" lon="17.7387111">
        <ele>57.8165</ele>
        <time>2012-05-11T20:52:59Z</time>
      </trkpt>
      <trkpt lat="59.980111" lon="17.738689">
        <ele>58.2971</ele>
        <time>2012-05-11T20:53:04Z</time>
      </trkpt>
      <trkpt lat="59.9802538" lon="17.7387228">
        <ele>61.181</ele>
        <time>2012-05-11T20:53:09Z</time>
      </trkpt>
      <trkpt lat="59.9804203" lon="17.73873">
        <ele>65.5071</ele>
        <time>2012-05-11T20:53:16Z</time>
      </trkpt>
      <trkpt lat="59.9806161" lon="17.7387076">
        <ele>74.1588</ele>
        <time>2012-05-11T20:53:22Z</time>
      </trkpt>
      <trkpt lat="59.9807242" lon="17.738675">
        <ele>74.1588</ele>
        <time>2012-05-11T20:53:27Z</time>
      </trkpt>
      <trkpt lat="59.9808028" lon="17.7386338">
        <ele>74.6395</ele>
        <time>2012-05-11T20:53:32Z</time>
      </trkpt>
      <trkpt lat="59.9809346" lon="17.7385928">
        <ele>79.446</ele>
        <time>2012-05-11T20:53:38Z</time>
      </trkpt>
      <trkpt lat="59.9810893" lon="17.7385447">
        <ele>85.214</ele>
        <time>2012-05-11T20:53:44Z</time>
      </trkpt>
      <trkpt lat="59.9812153" lon="17.7385127">
        <ele>86.1753</ele>
        <time>2012-05-11T20:53:50Z</time>
      </trkpt>
      <trkpt lat="59.9813353" lon="17.7384618">
        <ele>84.2527</ele>
        <time>2012-05-11T20:53:56Z</time>
      </trkpt>
      <trkpt lat="59.981508" lon="17.7383794">
        <ele>86.1753</ele>
        <time>2012-05-11T20:54:04Z</time>
      </trkpt>
      <trkpt lat="59.981567" lon="17.7383286">
        <ele>85.6946</ele>
        <time>2012-05-11T20:54:08Z</time>
      </trkpt>
      <trkpt lat="59.9816954" lon="17.7382813">
        <ele>89.5399</ele>
        <time>2012-05-11T20:54:13Z</time>
      </trkpt>
      <trkpt lat="59.9818106" lon="17.7382578">
        <ele>86.656</ele>
        <time>2012-05-11T20:54:19Z</time>
      </trkpt>
      <trkpt lat="59.981881" lon="17.738212">
        <ele>79.9266</ele>
        <time>2012-05-11T20:54:24Z</time>
      </trkpt>
      <trkpt lat="59.9819571" lon="17.7381816">
        <ele>80.8882</ele>
        <time>2012-05-11T20:54:27Z</time>
      </trkpt>
      <trkpt lat="59.9820768" lon="17.7381383">
        <ele>80.8882</ele>
        <time>2012-05-11T20:54:32Z</time>
      </trkpt>
      <trkpt lat="59.9822374" lon="17.7380898">
        <ele>82.8108</ele>
        <time>2012-05-11T20:54:38Z</time>
      </trkpt>
      <trkpt lat="59.9823794" lon="17.7380466">
        <ele>87.1366</ele>
        <time>2012-05-11T20:54:43Z</time>
      </trkpt>
      <trkpt lat="59.982476" lon="17.7380027">
        <ele>85.6946</ele>
        <time>2012-05-11T20:54:48Z</time>
      </trkpt>
      <trkpt lat="59.9826394" lon="17.7379672">
        <ele>91.4625</ele>
        <time>2012-05-11T20:54:54Z</time>
      </trkpt>
      <trkpt lat="59.9827672" lon="17.7379653">
        <ele>93.3851</ele>
        <time>2012-05-11T20:54:59Z</time>
      </trkpt>
      <trkpt lat="59.9828917" lon="17.7380225">
        <ele>85.6946</ele>
        <time>2012-05-11T20:55:06Z</time>
      </trkpt>
      <trkpt lat="59.9829724" lon="17.7380199">
        <ele>81.3688</ele>
        <time>2012-05-11T20:55:10Z</time>
      </trkpt>
      <trkpt lat="59.9830341" lon="17.7379893">
        <ele>76.0814</ele>
        <time>2012-05-11T20:55:14Z</time>
      </trkpt>
      <trkpt lat="59.9831567" lon="17.7379945">
        <ele>76.0814</ele>
        <time>2012-05-11T20:55:19Z</time>
      </trkpt>
      <trkpt lat="59.9832496" lon="17.7379975">
        <ele>72.2362</ele>
        <time>2012-05-11T20:55:24Z</time>
      </trkpt>
      <trkpt lat="59.9833555" lon="17.7379757">
        <ele>73.1976</ele>
        <time>2012-05-11T20:55:28Z</time>
      </trkpt>
      <trkpt lat="59.983522" lon="17.7379187">
        <ele>76.0814</ele>
        <time>2012-05-11T20:55:34Z</time>
      </trkpt>
      <trkpt lat="59.9836536" lon="17.7378701">
        <ele>77.0428</ele>
        <time>2012-05-11T20:55:40Z</time>
      </trkpt>
      <trkpt lat="59.9837588" lon="17.7378568">
        <ele>75.1202</ele>
        <time>2012-05-11T20:55:45Z</time>
      </trkpt>
      <trkpt lat="59.9838841" lon="17.7378361">
        <ele>76.5621</ele>
        <time>2012-05-11T20:55:50Z</time>
      </trkpt>
      <trkpt lat="59.9839394" lon="17.73781">
        <ele>69.3523</ele>
        <time>2012-05-11T20:55:55Z</time>
      </trkpt>
      <trkpt lat="59.9840792" lon="17.7378395">
        <ele>70.3135</ele>
        <time>2012-05-11T20:56:00Z</time>
      </trkpt>
      <trkpt lat="59.9842152" lon="17.7378271">
        <ele>68.8716</ele>
        <time>2012-05-11T20:56:06Z</time>
      </trkpt>
      <trkpt lat="59.9842462" lon="17.7378375">
        <ele>69.8329</ele>
        <time>2012-05-11T20:56:07Z</time>
      </trkpt>
      <trkpt lat="59.9843674" lon="17.7378144">
        <ele>69.3523</ele>
        <time>2012-05-11T20:56:13Z</time>
      </trkpt>
      <trkpt lat="59.9844433" lon="17.737818">
        <ele>70.3135</ele>
        <time>2012-05-11T20:56:17Z</time>
      </trkpt>
      <trkpt lat="59.9845469" lon="17.7378029">
        <ele>75.1202</ele>
        <time>2012-05-11T20:56:21Z</time>
      </trkpt>
      <trkpt lat="59.9847259" lon="17.7378324">
        <ele>81.3688</ele>
        <time>2012-05-11T20:56:28Z</time>
      </trkpt>
      <trkpt lat="59.9848642" lon="17.7378726">
        <ele>84.2527</ele>
        <time>2012-05-11T20:56:34Z</time>
      </trkpt>
      <trkpt lat="59.984928" lon="17.737922">
        <ele>85.6946</ele>
        <time>2012-05-11T20:56:37Z</time>
      </trkpt>
      <trkpt lat="59.9850924" lon="17.7379469">
        <ele>88.5787</ele>
        <time>2012-05-11T20:56:43Z</time>
      </trkpt>
      <trkpt lat="59.9852159" lon="17.737966">
        <ele>88.098</ele>
        <time>2012-05-11T20:56:48Z</time>
      </trkpt>
      <trkpt lat="59.9854008" lon="17.738007">
        <ele>90.0206</ele>
        <time>2012-05-11T20:56:54Z</time>
      </trkpt>
      <trkpt lat="59.9855199" lon="17.7380754">
        <ele>86.1753</ele>
        <time>2012-05-11T20:56:59Z</time>
      </trkpt>
      <trkpt lat="59.9855483" lon="17.7380847">
        <ele>86.656</ele>
        <time>2012-05-11T20:57:00Z</time>
      </trkpt>
      <trkpt lat="59.9856315" lon="17.7380981">
        <ele>84.7334</ele>
        <time>2012-05-11T20:57:04Z</time>
      </trkpt>
      <trkpt lat="59.9857205" lon="17.7381086">
        <ele>81.8494</ele>
        <time>2012-05-11T20:57:09Z</time>
      </trkpt>
      <trkpt lat="59.9858189" lon="17.7381898">
        <ele>80.4075</ele>
        <time>2012-05-11T20:57:14Z</time>
      </trkpt>
      <trkpt lat="59.9859503" lon="17.7382409">
        <ele>78.004</ele>
        <time>2012-05-11T20:57:20Z</time>
      </trkpt>
      <trkpt lat="59.9859915" lon="17.7382606">
        <ele>77.0428</ele>
        <time>2012-05-11T20:57:22Z</time>
      </trkpt>
      <trkpt lat="59.9861203" lon="17.7383469">
        <ele>77.0428</ele>
        <time>2012-05-11T20:57:27Z</time>
      </trkpt>
      <trkpt lat="59.9861617" lon="17.7383837">
        <ele>77.0428</ele>
        <time>2012-05-11T20:57:29Z</time>
      </trkpt>
      <trkpt lat="59.9862534" lon="17.738468">
        <ele>73.6782</ele>
        <time>2012-05-11T20:57:34Z</time>
      </trkpt>
      <trkpt lat="59.9862667" lon="17.7384882">
        <ele>73.6782</ele>
        <time>2012-05-11T20:57:35Z</time>
      </trkpt>
      <trkpt lat="59.9864328" lon="17.7386475">
        <ele>78.004</ele>
        <time>2012-05-11T20:57:41Z</time>
      </trkpt>
      <trkpt lat="59.9865727" lon="17.738752">
        <ele>81.3688</ele>
        <time>2012-05-11T20:57:46Z</time>
      </trkpt>
      <trkpt lat="59.9866853" lon="17.7388675">
        <ele>81.8494</ele>
        <time>2012-05-11T20:57:51Z</time>
      </trkpt>
      <trkpt lat="59.9868361" lon="17.7389714">
        <ele>85.214</ele>
        <time>2012-05-11T20:57:57Z</time>
      </trkpt>
      <trkpt lat="59.9870166" lon="17.7391202">
        <ele>85.214</ele>
        <time>2012-05-11T20:58:04Z</time>
      </trkpt>
      <trkpt lat="59.9871184" lon="17.7391931">
        <ele>86.656</ele>
        <time>2012-05-11T20:58:08Z</time>
      </trkpt>
      <trkpt lat="59.9872019" lon="17.7392599">
        <ele>85.6946</ele>
        <time>2012-05-11T20:58:12Z</time>
      </trkpt>
      <trkpt lat="59.987292" lon="17.739262">
        <ele>85.6946</ele>
        <time>2012-05-11T20:58:16Z</time>
      </trkpt>
      <trkpt lat="59.9873755" lon="17.7392579">
        <ele>83.772</ele>
        <time>2012-05-11T20:58:20Z</time>
      </trkpt>
      <trkpt lat="59.9874852" lon="17.7392781">
        <ele>81.8494</ele>
        <time>2012-05-11T20:58:25Z</time>
      </trkpt>
      <trkpt lat="59.987576" lon="17.7392435">
        <ele>80.4075</ele>
        <time>2012-05-11T20:58:30Z</time>
      </trkpt>
      <trkpt lat="59.987693" lon="17.7392114">
        <ele>85.6946</ele>
        <time>2012-05-11T20:58:34Z</time>
      </trkpt>
      <trkpt lat="59.9877909" lon="17.7392383">
        <ele>89.5399</ele>
        <time>2012-05-11T20:58:39Z</time>
      </trkpt>
      <trkpt lat="59.9879812" lon="17.7392212">
        <ele>100.115</ele>
        <time>2012-05-11T20:58:45Z</time>
      </trkpt>
      <trkpt lat="59.9880829" lon="17.7391937">
        <ele>100.595</ele>
        <time>2012-05-11T20:58:50Z</time>
      </trkpt>
      <trkpt lat="59.98818" lon="17.7391544">
        <ele>102.998</ele>
        <time>2012-05-11T20:58:54Z</time>
      </trkpt>
      <trkpt lat="59.9883132" lon="17.7391187">
        <ele>103.96</ele>
        <time>2012-05-11T20:58:59Z</time>
      </trkpt>
      <trkpt lat="59.9884592" lon="17.7390513">
        <ele>108.766</ele>
        <time>2012-05-11T20:59:04Z</time>
      </trkpt>
      <trkpt lat="59.9885929" lon="17.739">
        <ele>109.728</ele>
        <time>2012-05-11T20:59:09Z</time>
      </trkpt>
      <trkpt lat="59.9887261" lon="17.7389575">
        <ele>107.805</ele>
        <time>2012-05-11T20:59:15Z</time>
      </trkpt>
      <trkpt lat="59.9887456" lon="17.7389309">
        <ele>105.882</ele>
        <time>2012-05-11T20:59:17Z</time>
      </trkpt>
      <trkpt lat="59.9888244" lon="17.7388802">
        <ele>105.882</ele>
        <time>2012-05-11T20:59:21Z</time>
      </trkpt>
      <trkpt lat="59.9888876" lon="17.7387954">
        <ele>96.7499</ele>
        <time>2012-05-11T20:59:27Z</time>
      </trkpt>
      <trkpt lat="59.9889097" lon="17.7387732">
        <ele>96.2693</ele>
        <time>2012-05-11T20:59:28Z</time>
      </trkpt>
      <trkpt lat="59.9890306" lon="17.7386768">
        <ele>95.3077</ele>
        <time>2012-05-11T20:59:33Z</time>
      </trkpt>
      <trkpt lat="59.9890466" lon="17.7386442">
        <ele>94.3466</ele>
        <time>2012-05-11T20:59:34Z</time>
      </trkpt>
      <trkpt lat="59.9891953" lon="17.7385277">
        <ele>96.7499</ele>
        <time>2012-05-11T20:59:40Z</time>
      </trkpt>
      <trkpt lat="59.9893645" lon="17.7384662">
        <ele>104.44</ele>
        <time>2012-05-11T20:59:45Z</time>
      </trkpt>
      <trkpt lat="59.9894629" lon="17.7384223">
        <ele>101.076</ele>
        <time>2012-05-11T20:59:50Z</time>
      </trkpt>
      <trkpt lat="59.9895491" lon="17.7384021">
        <ele>97.7112</ele>
        <time>2012-05-11T20:59:54Z</time>
      </trkpt>
      <trkpt lat="59.9896491" lon="17.7384124">
        <ele>87.6172</ele>
        <time>2012-05-11T21:00:00Z</time>
      </trkpt>
      <trkpt lat="59.9896848" lon="17.7384111">
        <ele>89.5399</ele>
        <time>2012-05-11T21:00:01Z</time>
      </trkpt>
      <trkpt lat="59.9897862" lon="17.7383642">
        <ele>88.5787</ele>
        <time>2012-05-11T21:00:06Z</time>
      </trkpt>
      <trkpt lat="59.989874" lon="17.7383358">
        <ele>84.2527</ele>
        <time>2012-05-11T21:00:12Z</time>
      </trkpt>
      <trkpt lat="59.9900034" lon="17.738296">
        <ele>90.5013</ele>
        <time>2012-05-11T21:00:16Z</time>
      </trkpt>
      <trkpt lat="59.9901421" lon="17.7381915">
        <ele>88.098</ele>
        <time>2012-05-11T21:00:22Z</time>
      </trkpt>
      <trkpt lat="59.9903326" lon="17.7380962">
        <ele>97.7112</ele>
        <time>2012-05-11T21:00:28Z</time>
      </trkpt>
      <trkpt lat="59.9904701" lon="17.7380387">
        <ele>99.6338</ele>
        <time>2012-05-11T21:00:33Z</time>
      </trkpt>
      <trkpt lat="59.9905667" lon="17.7379888">
        <ele>93.8658</ele>
        <time>2012-05-11T21:00:38Z</time>
      </trkpt>
      <trkpt lat="59.9906729" lon="17.7379482">
        <ele>90.5013</ele>
        <time>2012-05-11T21:00:43Z</time>
      </trkpt>
      <trkpt lat="59.9908302" lon="17.7378938">
        <ele>96.2693</ele>
        <time>2012-05-11T21:00:48Z</time>
      </trkpt>
      <trkpt lat="59.9908984" lon="17.7377804">
        <ele>89.0593</ele>
        <time>2012-05-11T21:00:53Z</time>
      </trkpt>
      <trkpt lat="59.9910195" lon="17.7377112">
        <ele>80.4075</ele>
        <time>2012-05-11T21:00:59Z</time>
      </trkpt>
      <trkpt lat="59.9911673" lon="17.7375968">
        <ele>79.9266</ele>
        <time>2012-05-11T21:01:05Z</time>
      </trkpt>
      <trkpt lat="59.9913293" lon="17.7375561">
        <ele>80.8882</ele>
        <time>2012-05-11T21:01:11Z</time>
      </trkpt>
      <trkpt lat="59.9915191" lon="17.7375257">
        <ele>81.8494</ele>
        <time>2012-05-11T21:01:18Z</time>
      </trkpt>
      <trkpt lat="59.9916361" lon="17.7375085">
        <ele>79.9266</ele>
        <time>2012-05-11T21:01:23Z</time>
      </trkpt>
      <trkpt lat="59.9917999" lon="17.7375288">
        <ele>76.0814</ele>
        <time>2012-05-11T21:01:30Z</time>
      </trkpt>
      <trkpt lat="59.9919392" lon="17.737472">
        <ele>76.0814</ele>
        <time>2012-05-11T21:01:36Z</time>
      </trkpt>
      <trkpt lat="59.992065" lon="17.7374159">
        <ele>78.004</ele>
        <time>2012-05-11T21:01:42Z</time>
      </trkpt>
      <trkpt lat="59.9922267" lon="17.7374133">
        <ele>81.8494</ele>
        <time>2012-05-11T21:01:47Z</time>
      </trkpt>
      <trkpt lat="59.992333" lon="17.7374014">
        <ele>86.656</ele>
        <time>2012-05-11T21:01:50Z</time>
      </trkpt>
      <trkpt lat="59.9922791" lon="17.7376123">
        <ele>55.8938</ele>
        <time>2012-05-11T21:02:08Z</time>
      </trkpt>
      <trkpt lat="59.9922775" lon="17.7375999">
        <ele>55.4131</ele>
        <time>2012-05-11T21:02:09Z</time>
      </trkpt>
      <trkpt lat="59.9922516" lon="17.7375899">
        <ele>52.0486</ele>
        <time>2012-05-11T21:02:10Z</time>
      </trkpt>
      <trkpt lat="59.9921464" lon="17.7375605">
        <ele>52.0486</ele>
        <time>2012-05-11T21:02:15Z</time>
      </trkpt>
      <trkpt lat="59.9920204" lon="17.7376252">
        <ele>53.0098</ele>
        <time>2012-05-11T21:02:21Z</time>
      </trkpt>
      <trkpt lat="59.991861" lon="17.7377048">
        <ele>53.9712</ele>
        <time>2012-05-11T21:02:26Z</time>
      </trkpt>
      <trkpt lat="59.9917381" lon="17.7377324">
        <ele>55.4131</ele>
        <time>2012-05-11T21:02:31Z</time>
      </trkpt>
      <trkpt lat="59.9915775" lon="17.7377353">
        <ele>53.9712</ele>
        <time>2012-05-11T21:02:37Z</time>
      </trkpt>
      <trkpt lat="59.9914149" lon="17.737791">
        <ele>55.8938</ele>
        <time>2012-05-11T21:02:43Z</time>
      </trkpt>
      <trkpt lat="59.99123" lon="17.7379058">
        <ele>58.7777</ele>
        <time>2012-05-11T21:02:49Z</time>
      </trkpt>
      <trkpt lat="59.9910886" lon="17.7379215">
        <ele>58.2971</ele>
        <time>2012-05-11T21:02:55Z</time>
      </trkpt>
      <trkpt lat="59.9909265" lon="17.7379749">
        <ele>56.3745</ele>
        <time>2012-05-11T21:03:02Z</time>
      </trkpt>
      <trkpt lat="59.9908379" lon="17.7379918">
        <ele>55.4131</ele>
        <time>2012-05-11T21:03:07Z</time>
      </trkpt>
      <trkpt lat="59.9906948" lon="17.7380485">
        <ele>50.126</ele>
        <time>2012-05-11T21:03:13Z</time>
      </trkpt>
      <trkpt lat="59.9906639" lon="17.7380882">
        <ele>51.0872</ele>
        <time>2012-05-11T21:03:15Z</time>
      </trkpt>
      <trkpt lat="59.9905115" lon="17.738179">
        <ele>49.6453</ele>
        <time>2012-05-11T21:03:22Z</time>
      </trkpt>
      <trkpt lat="59.9904106" lon="17.7382364">
        <ele>52.5292</ele>
        <time>2012-05-11T21:03:27Z</time>
      </trkpt>
      <trkpt lat="59.9902882" lon="17.7382608">
        <ele>53.9712</ele>
        <time>2012-05-11T21:03:32Z</time>
      </trkpt>
      <trkpt lat="59.9901648" lon="17.7383547">
        <ele>54.9324</ele>
        <time>2012-05-11T21:03:37Z</time>
      </trkpt>
      <trkpt lat="59.990041" lon="17.7384313">
        <ele>59.2584</ele>
        <time>2012-05-11T21:03:43Z</time>
      </trkpt>
      <trkpt lat="59.9898796" lon="17.7384668">
        <ele>56.8551</ele>
        <time>2012-05-11T21:03:50Z</time>
      </trkpt>
      <trkpt lat="59.9897573" lon="17.7385126">
        <ele>57.3358</ele>
        <time>2012-05-11T21:03:56Z</time>
      </trkpt>
      <trkpt lat="59.9895972" lon="17.7385172">
        <ele>53.9712</ele>
        <time>2012-05-11T21:04:02Z</time>
      </trkpt>
      <trkpt lat="59.989461" lon="17.7385685">
        <ele>54.4518</ele>
        <time>2012-05-11T21:04:08Z</time>
      </trkpt>
      <trkpt lat="59.9893521" lon="17.738645">
        <ele>54.9324</ele>
        <time>2012-05-11T21:04:13Z</time>
      </trkpt>
      <trkpt lat="59.9892042" lon="17.7387265">
        <ele>53.4905</ele>
        <time>2012-05-11T21:04:19Z</time>
      </trkpt>
      <trkpt lat="59.9890797" lon="17.7387793">
        <ele>53.0098</ele>
        <time>2012-05-11T21:04:25Z</time>
      </trkpt>
      <trkpt lat="59.9889439" lon="17.7388731">
        <ele>52.0486</ele>
        <time>2012-05-11T21:04:32Z</time>
      </trkpt>
      <trkpt lat="59.9888385" lon="17.7389832">
        <ele>52.5292</ele>
        <time>2012-05-11T21:04:37Z</time>
      </trkpt>
      <trkpt lat="59.9886846" lon="17.7391101">
        <ele>56.3745</ele>
        <time>2012-05-11T21:04:45Z</time>
      </trkpt>
      <trkpt lat="59.9885244" lon="17.7391766">
        <ele>52.0486</ele>
        <time>2012-05-11T21:04:52Z</time>
      </trkpt>
      <trkpt lat="59.9883921" lon="17.7392259">
        <ele>51.0872</ele>
        <time>2012-05-11T21:04:58Z</time>
      </trkpt>
      <trkpt lat="59.9883219" lon="17.7392668">
        <ele>51.0872</ele>
        <time>2012-05-11T21:05:01Z</time>
      </trkpt>
      <trkpt lat="59.9881494" lon="17.7393355">
        <ele>49.6453</ele>
        <time>2012-05-11T21:05:08Z</time>
      </trkpt>
      <trkpt lat="59.9880235" lon="17.7393361">
        <ele>51.5679</ele>
        <time>2012-05-11T21:05:14Z</time>
      </trkpt>
      <trkpt lat="59.987818" lon="17.7394107">
        <ele>52.0486</ele>
        <time>2012-05-11T21:05:22Z</time>
      </trkpt>
      <trkpt lat="59.9876183" lon="17.739442">
        <ele>52.0486</ele>
        <time>2012-05-11T21:05:29Z</time>
      </trkpt>
      <trkpt lat="59.987417" lon="17.7394197">
        <ele>48.2034</ele>
        <time>2012-05-11T21:05:36Z</time>
      </trkpt>
      <trkpt lat="59.9872584" lon="17.7394587">
        <ele>46.7612</ele>
        <time>2012-05-11T21:05:41Z</time>
      </trkpt>
      <trkpt lat="59.9871308" lon="17.7394989">
        <ele>50.126</ele>
        <time>2012-05-11T21:05:47Z</time>
      </trkpt>
      <trkpt lat="59.9869985" lon="17.7394113">
        <ele>51.5679</ele>
        <time>2012-05-11T21:05:53Z</time>
      </trkpt>
      <trkpt lat="59.986931" lon="17.7393371">
        <ele>56.8551</ele>
        <time>2012-05-11T21:05:57Z</time>
      </trkpt>
      <trkpt lat="59.9867897" lon="17.7391715">
        <ele>52.0486</ele>
        <time>2012-05-11T21:06:05Z</time>
      </trkpt>
      <trkpt lat="59.9867736" lon="17.7391284">
        <ele>51.5679</ele>
        <time>2012-05-11T21:06:06Z</time>
      </trkpt>
      <trkpt lat="59.9866408" lon="17.738957">
        <ele>45.3192</ele>
        <time>2012-05-11T21:06:13Z</time>
      </trkpt>
      <trkpt lat="59.9866186" lon="17.7389414">
        <ele>43.8773</ele>
        <time>2012-05-11T21:06:14Z</time>
      </trkpt>
      <trkpt lat="59.9864193" lon="17.7387773">
        <ele>40.0321</ele>
        <time>2012-05-11T21:06:22Z</time>
      </trkpt>
      <trkpt lat="59.9863222" lon="17.7387307">
        <ele>40.9934</ele>
        <time>2012-05-11T21:06:26Z</time>
      </trkpt>
      <trkpt lat="59.9861984" lon="17.7386441">
        <ele>41.9547</ele>
        <time>2012-05-11T21:06:31Z</time>
      </trkpt>
      <trkpt lat="59.986097" lon="17.7385802">
        <ele>43.8773</ele>
        <time>2012-05-11T21:06:36Z</time>
      </trkpt>
      <trkpt lat="59.9859811" lon="17.7385235">
        <ele>45.7999</ele>
        <time>2012-05-11T21:06:41Z</time>
      </trkpt>
      <trkpt lat="59.98578" lon="17.7384664">
        <ele>42.4354</ele>
        <time>2012-05-11T21:06:48Z</time>
      </trkpt>
      <trkpt lat="59.9856297" lon="17.7384152">
        <ele>40.9934</ele>
        <time>2012-05-11T21:06:53Z</time>
      </trkpt>
      <trkpt lat="59.9854582" lon="17.7383691">
        <ele>40.5128</ele>
        <time>2012-05-11T21:06:59Z</time>
      </trkpt>
      <trkpt lat="59.9854082" lon="17.7383535">
        <ele>40.5128</ele>
        <time>2012-05-11T21:07:01Z</time>
      </trkpt>
      <trkpt lat="59.9852603" lon="17.7382847">
        <ele>41.474</ele>
        <time>2012-05-11T21:07:08Z</time>
      </trkpt>
      <trkpt lat="59.9851061" lon="17.7382435">
        <ele>40.0321</ele>
        <time>2012-05-11T21:07:14Z</time>
      </trkpt>
      <trkpt lat="59.9850139" lon="17.7382546">
        <ele>41.9547</ele>
        <time>2012-05-11T21:07:18Z</time>
      </trkpt>
      <trkpt lat="59.9849208" lon="17.7382192">
        <ele>47.7225</ele>
        <time>2012-05-11T21:07:24Z</time>
      </trkpt>
      <trkpt lat="59.9848106" lon="17.7381878">
        <ele>49.1646</ele>
        <time>2012-05-11T21:07:29Z</time>
      </trkpt>
      <trkpt lat="59.9846498" lon="17.7381559">
        <ele>51.0872</ele>
        <time>2012-05-11T21:07:34Z</time>
      </trkpt>
      <trkpt lat="59.9845161" lon="17.7380986">
        <ele>51.0872</ele>
        <time>2012-05-11T21:07:40Z</time>
      </trkpt>
      <trkpt lat="59.9843446" lon="17.7380912">
        <ele>52.0486</ele>
        <time>2012-05-11T21:07:46Z</time>
      </trkpt>
      <trkpt lat="59.9842277" lon="17.738072">
        <ele>51.5679</ele>
        <time>2012-05-11T21:07:51Z</time>
      </trkpt>
      <trkpt lat="59.9841067" lon="17.7380581">
        <ele>48.684</ele>
        <time>2012-05-11T21:07:56Z</time>
      </trkpt>
      <trkpt lat="59.983994" lon="17.7380803">
        <ele>48.2034</ele>
        <time>2012-05-11T21:08:01Z</time>
      </trkpt>
      <trkpt lat="59.9838292" lon="17.7381183">
        <ele>43.8773</ele>
        <time>2012-05-11T21:08:07Z</time>
      </trkpt>
      <trkpt lat="59.9836505" lon="17.7380816">
        <ele>34.2642</ele>
        <time>2012-05-11T21:08:13Z</time>
      </trkpt>
      <trkpt lat="59.9835469" lon="17.738128">
        <ele>41.474</ele>
        <time>2012-05-11T21:08:19Z</time>
      </trkpt>
      <trkpt lat="59.9833453" lon="17.7381385">
        <ele>36.6675</ele>
        <time>2012-05-11T21:08:26Z</time>
      </trkpt>
      <trkpt lat="59.9832381" lon="17.7381819">
        <ele>37.1481</ele>
        <time>2012-05-11T21:08:30Z</time>
      </trkpt>
      <trkpt lat="59.9831359" lon="17.7382059">
        <ele>39.5513</ele>
        <time>2012-05-11T21:08:35Z</time>
      </trkpt>
      <trkpt lat="59.9829982" lon="17.7382375">
        <ele>38.1094</ele>
        <time>2012-05-11T21:08:41Z</time>
      </trkpt>
      <trkpt lat="59.982874" lon="17.7382031">
        <ele>37.1481</ele>
        <time>2012-05-11T21:08:46Z</time>
      </trkpt>
      <trkpt lat="59.9827544" lon="17.7381613">
        <ele>39.0707</ele>
        <time>2012-05-11T21:08:51Z</time>
      </trkpt>
      <trkpt lat="59.982659" lon="17.7381635">
        <ele>45.7999</ele>
        <time>2012-05-11T21:08:56Z</time>
      </trkpt>
      <trkpt lat="59.9825253" lon="17.7381442">
        <ele>44.8386</ele>
        <time>2012-05-11T21:09:01Z</time>
      </trkpt>
      <trkpt lat="59.9824825" lon="17.738166">
        <ele>46.7612</ele>
        <time>2012-05-11T21:09:04Z</time>
      </trkpt>
      <trkpt lat="59.9823866" lon="17.7381905">
        <ele>46.2806</ele>
        <time>2012-05-11T21:09:08Z</time>
      </trkpt>
      <trkpt lat="59.9822252" lon="17.7382722">
        <ele>46.7612</ele>
        <time>2012-05-11T21:09:15Z</time>
      </trkpt>
      <trkpt lat="59.9821161" lon="17.7383223">
        <ele>48.684</ele>
        <time>2012-05-11T21:09:21Z</time>
      </trkpt>
      <trkpt lat="59.9819466" lon="17.7383604">
        <ele>44.8386</ele>
        <time>2012-05-11T21:09:27Z</time>
      </trkpt>
      <trkpt lat="59.9818028" lon="17.7383981">
        <ele>39.5513</ele>
        <time>2012-05-11T21:09:33Z</time>
      </trkpt>
      <trkpt lat="59.9816822" lon="17.7384156">
        <ele>37.6287</ele>
        <time>2012-05-11T21:09:38Z</time>
      </trkpt>
      <trkpt lat="59.9815784" lon="17.7384507">
        <ele>41.474</ele>
        <time>2012-05-11T21:09:44Z</time>
      </trkpt>
      <trkpt lat="59.9814667" lon="17.738467">
        <ele>42.916</ele>
        <time>2012-05-11T21:09:49Z</time>
      </trkpt>
      <trkpt lat="59.981363" lon="17.7385193">
        <ele>40.5128</ele>
        <time>2012-05-11T21:09:54Z</time>
      </trkpt>
      <trkpt lat="59.9812205" lon="17.738554">
        <ele>36.6675</ele>
        <time>2012-05-11T21:09:58Z</time>
      </trkpt>
      <trkpt lat="59.980993" lon="17.7386532">
        <ele>33.7834</ele>
        <time>2012-05-11T21:10:06Z</time>
      </trkpt>
      <trkpt lat="59.9808017" lon="17.738673">
        <ele>32.3416</ele>
        <time>2012-05-11T21:10:13Z</time>
      </trkpt>
      <trkpt lat="59.9806373" lon="17.7386875">
        <ele>32.8223</ele>
        <time>2012-05-11T21:10:19Z</time>
      </trkpt>
      <trkpt lat="59.980521" lon="17.7387436">
        <ele>37.1481</ele>
        <time>2012-05-11T21:10:24Z</time>
      </trkpt>
      <trkpt lat="59.9803746" lon="17.7388">
        <ele>40.0321</ele>
        <time>2012-05-11T21:10:31Z</time>
      </trkpt>
      <trkpt lat="59.9802765" lon="17.7388744">
        <ele>47.2418</ele>
        <time>2012-05-11T21:10:36Z</time>
      </trkpt>
      <trkpt lat="59.9800797" lon="17.738863">
        <ele>47.2418</ele>
        <time>2012-05-11T21:10:43Z</time>
      </trkpt>
      <trkpt lat="59.9799266" lon="17.7388384">
        <ele>45.7999</ele>
        <time>2012-05-11T21:10:49Z</time>
      </trkpt>
      <trkpt lat="59.9797519" lon="17.7388845">
        <ele>44.8386</ele>
        <time>2012-05-11T21:10:55Z</time>
      </trkpt>
      <trkpt lat="59.9795929" lon="17.7389565">
        <ele>43.3966</ele>
        <time>2012-05-11T21:11:01Z</time>
      </trkpt>
      <trkpt lat="59.9794563" lon="17.7389772">
        <ele>38.5901</ele>
        <time>2012-05-11T21:11:07Z</time>
      </trkpt>
      <trkpt lat="59.9793474" lon="17.7390824">
        <ele>37.6287</ele>
        <time>2012-05-11T21:11:12Z</time>
      </trkpt>
      <trkpt lat="59.9791573" lon="17.7391863">
        <ele>34.7449</ele>
        <time>2012-05-11T21:11:19Z</time>
      </trkpt>
      <trkpt lat="59.9790042" lon="17.739235">
        <ele>33.3029</ele>
        <time>2012-05-11T21:11:25Z</time>
      </trkpt>
      <trkpt lat="59.9788152" lon="17.7393299">
        <ele>34.2642</ele>
        <time>2012-05-11T21:11:32Z</time>
      </trkpt>
      <trkpt lat="59.9786258" lon="17.7392999">
        <ele>31.8607</ele>
        <time>2012-05-11T21:11:39Z</time>
      </trkpt>
      <trkpt lat="59.978491" lon="17.7393175">
        <ele>34.2642</ele>
        <time>2012-05-11T21:11:45Z</time>
      </trkpt>
      <trkpt lat="59.9783575" lon="17.7392752">
        <ele>34.7449</ele>
        <time>2012-05-11T21:11:51Z</time>
      </trkpt>
      <trkpt lat="59.9782482" lon="17.7392896">
        <ele>39.5513</ele>
        <time>2012-05-11T21:11:57Z</time>
      </trkpt>
      <trkpt lat="59.9781301" lon="17.7391999">
        <ele>37.6287</ele>
        <time>2012-05-11T21:12:03Z</time>
      </trkpt>
      <trkpt lat="59.9780207" lon="17.7391373">
        <ele>34.2642</ele>
        <time>2012-05-11T21:12:08Z</time>
      </trkpt>
      <trkpt lat="59.9778618" lon="17.7390746">
        <ele>32.8223</ele>
        <time>2012-05-11T21:12:14Z</time>
      </trkpt>
      <trkpt lat="59.9776664" lon="17.7390392">
        <ele>32.8223</ele>
        <time>2012-05-11T21:12:21Z</time>
      </trkpt>
      <trkpt lat="59.9775125" lon="17.7390351">
        <ele>32.3416</ele>
        <time>2012-05-11T21:12:27Z</time>
      </trkpt>
      <trkpt lat="59.9773742" lon="17.7390977">
        <ele>33.7834</ele>
        <time>2012-05-11T21:12:33Z</time>
      </trkpt>
      <trkpt lat="59.9772266" lon="17.739201">
        <ele>34.2642</ele>
        <time>2012-05-11T21:12:39Z</time>
      </trkpt>
      <trkpt lat="59.9770645" lon="17.7393091">
        <ele>35.2255</ele>
        <time>2012-05-11T21:12:46Z</time>
      </trkpt>
      <trkpt lat="59.9769719" lon="17.7393517">
        <ele>36.1868</ele>
        <time>2012-05-11T21:12:51Z</time>
      </trkpt>
      <trkpt lat="59.9768143" lon="17.7393728">
        <ele>32.8223</ele>
        <time>2012-05-11T21:12:57Z</time>
      </trkpt>
      <trkpt lat="59.9766854" lon="17.7394271">
        <ele>29.9381</ele>
        <time>2012-05-11T21:13:02Z</time>
      </trkpt>
      <trkpt lat="59.9765449" lon="17.7395522">
        <ele>28.0155</ele>
        <time>2012-05-11T21:13:07Z</time>
      </trkpt>
      <trkpt lat="59.9763822" lon="17.7397807">
        <ele>24.651</ele>
        <time>2012-05-11T21:13:14Z</time>
      </trkpt>
      <trkpt lat="59.9762864" lon="17.7400272">
        <ele>23.6896</ele>
        <time>2012-05-11T21:13:20Z</time>
      </trkpt>
      <trkpt lat="59.976203" lon="17.7402908">
        <ele>24.651</ele>
        <time>2012-05-11T21:13:26Z</time>
      </trkpt>
      <trkpt lat="59.9761086" lon="17.7405714">
        <ele>25.6123</ele>
        <time>2012-05-11T21:13:32Z</time>
      </trkpt>
      <trkpt lat="59.9760082" lon="17.740885">
        <ele>27.0543</ele>
        <time>2012-05-11T21:13:39Z</time>
      </trkpt>
      <trkpt lat="59.9759032" lon="17.741222">
        <ele>28.9769</ele>
        <time>2012-05-11T21:13:47Z</time>
      </trkpt>
      <trkpt lat="59.9758394" lon="17.7414511">
        <ele>28.9769</ele>
        <time>2012-05-11T21:13:53Z</time>
      </trkpt>
      <trkpt lat="59.9757972" lon="17.741667">
        <ele>31.3801</ele>
        <time>2012-05-11T21:13:58Z</time>
      </trkpt>
      <trkpt lat="59.975731" lon="17.7420066">
        <ele>32.3416</ele>
        <time>2012-05-11T21:14:06Z</time>
      </trkpt>
      <trkpt lat="59.9756734" lon="17.7422296">
        <ele>31.3801</ele>
        <time>2012-05-11T21:14:11Z</time>
      </trkpt>
      <trkpt lat="59.9755975" lon="17.7425116">
        <ele>30.4188</ele>
        <time>2012-05-11T21:14:17Z</time>
      </trkpt>
      <trkpt lat="59.9755551" lon="17.742659">
        <ele>30.4188</ele>
        <time>2012-05-11T21:14:21Z</time>
      </trkpt>
      <trkpt lat="59.9755021" lon="17.7428854">
        <ele>30.4188</ele>
        <time>2012-05-11T21:14:26Z</time>
      </trkpt>
      <trkpt lat="59.9754379" lon="17.7430994">
        <ele>28.9769</ele>
        <time>2012-05-11T21:14:31Z</time>
      </trkpt>
      <trkpt lat="59.9753736" lon="17.7433285">
        <ele>28.0155</ele>
        <time>2012-05-11T21:14:37Z</time>
      </trkpt>
      <trkpt lat="59.9753166" lon="17.7435911">
        <ele>28.4962</ele>
        <time>2012-05-11T21:14:43Z</time>
      </trkpt>
      <trkpt lat="59.9752565" lon="17.7439323">
        <ele>26.0929</ele>
        <time>2012-05-11T21:14:51Z</time>
      </trkpt>
      <trkpt lat="59.9752008" lon="17.7442156">
        <ele>25.1317</ele>
        <time>2012-05-11T21:14:58Z</time>
      </trkpt>
      <trkpt lat="59.97513" lon="17.7445463">
        <ele>25.6123</ele>
        <time>2012-05-11T21:15:05Z</time>
      </trkpt>
      <trkpt lat="59.9750575" lon="17.7448272">
        <ele>28.4962</ele>
        <time>2012-05-11T21:15:11Z</time>
      </trkpt>
      <trkpt lat="59.9749746" lon="17.7450497">
        <ele>28.0155</ele>
        <time>2012-05-11T21:15:17Z</time>
      </trkpt>
      <trkpt lat="59.97491" lon="17.7452496">
        <ele>29.4575</ele>
        <time>2012-05-11T21:15:22Z</time>
      </trkpt>
      <trkpt lat="59.9748158" lon="17.7455243">
        <ele>30.8995</ele>
        <time>2012-05-11T21:15:29Z</time>
      </trkpt>
      <trkpt lat="59.9747385" lon="17.7456896">
        <ele>31.3801</ele>
        <time>2012-05-11T21:15:34Z</time>
      </trkpt>
      <trkpt lat="59.9746216" lon="17.7459701">
        <ele>35.2255</ele>
        <time>2012-05-11T21:15:41Z</time>
      </trkpt>
      <trkpt lat="59.9745195" lon="17.7461577">
        <ele>36.6675</ele>
        <time>2012-05-11T21:15:47Z</time>
      </trkpt>
      <trkpt lat="59.9744293" lon="17.7463148">
        <ele>33.7834</ele>
        <time>2012-05-11T21:15:52Z</time>
      </trkpt>
      <trkpt lat="59.9742916" lon="17.746499">
        <ele>33.3029</ele>
        <time>2012-05-11T21:15:59Z</time>
      </trkpt>
      <trkpt lat="59.9741296" lon="17.7467126">
        <ele>32.8223</ele>
        <time>2012-05-11T21:16:07Z</time>
      </trkpt>
      <trkpt lat="59.9739895" lon="17.7468955">
        <ele>30.8995</ele>
        <time>2012-05-11T21:16:13Z</time>
      </trkpt>
      <trkpt lat="59.973847" lon="17.7470959">
        <ele>29.9381</ele>
        <time>2012-05-11T21:16:20Z</time>
      </trkpt>
      <trkpt lat="59.9737191" lon="17.7472116">
        <ele>28.0155</ele>
        <time>2012-05-11T21:16:26Z</time>
      </trkpt>
      <trkpt lat="59.97358" lon="17.7473115">
        <ele>26.0929</ele>
        <time>2012-05-11T21:16:32Z</time>
      </trkpt>
      <trkpt lat="59.9734795" lon="17.7474463">
        <ele>28.4962</ele>
        <time>2012-05-11T21:16:37Z</time>
      </trkpt>
      <trkpt lat="59.9733674" lon="17.7475833">
        <ele>29.9381</ele>
        <time>2012-05-11T21:16:42Z</time>
      </trkpt>
      <trkpt lat="59.9732499" lon="17.747692">
        <ele>28.0155</ele>
        <time>2012-05-11T21:16:47Z</time>
      </trkpt>
      <trkpt lat="59.9731245" lon="17.7478374">
        <ele>27.5349</ele>
        <time>2012-05-11T21:16:53Z</time>
      </trkpt>
      <trkpt lat="59.9730214" lon="17.7479943">
        <ele>29.4575</ele>
        <time>2012-05-11T21:16:58Z</time>
      </trkpt>
      <trkpt lat="59.972893" lon="17.7481589">
        <ele>27.0543</ele>
        <time>2012-05-11T21:17:04Z</time>
      </trkpt>
      <trkpt lat="59.9727967" lon="17.7483633">
        <ele>25.6123</ele>
        <time>2012-05-11T21:17:10Z</time>
      </trkpt>
      <trkpt lat="59.9727363" lon="17.7485569">
        <ele>25.1317</ele>
        <time>2012-05-11T21:17:15Z</time>
      </trkpt>
      <trkpt lat="59.9726324" lon="17.748765">
        <ele>25.1317</ele>
        <time>2012-05-11T21:17:21Z</time>
      </trkpt>
      <trkpt lat="59.9725312" lon="17.7489982">
        <ele>26.5736</ele>
        <time>2012-05-11T21:17:27Z</time>
      </trkpt>
      <trkpt lat="59.9724165" lon="17.7492274">
        <ele>27.0543</ele>
        <time>2012-05-11T21:17:34Z</time>
      </trkpt>
      <trkpt lat="59.9723294" lon="17.7494616">
        <ele>32.3416</ele>
        <time>2012-05-11T21:17:39Z</time>
      </trkpt>
      <trkpt lat="59.9722723" lon="17.7496171">
        <ele>38.1094</ele>
        <time>2012-05-11T21:17:44Z</time>
      </trkpt>
      <trkpt lat="59.9721929" lon="17.7498231">
        <ele>37.1481</ele>
        <time>2012-05-11T21:17:49Z</time>
      </trkpt>
      <trkpt lat="59.9721119" lon="17.7499762">
        <ele>33.3029</ele>
        <time>2012-05-11T21:17:54Z</time>
      </trkpt>
      <trkpt lat="59.9719961" lon="17.750193">
        <ele>31.3801</ele>
        <time>2012-05-11T21:18:01Z</time>
      </trkpt>
      <trkpt lat="59.9718705" lon="17.7504266">
        <ele>30.4188</ele>
        <time>2012-05-11T21:18:07Z</time>
      </trkpt>
      <trkpt lat="59.9717708" lon="17.7506382">
        <ele>30.8995</ele>
        <time>2012-05-11T21:18:13Z</time>
      </trkpt>
      <trkpt lat="59.9716239" lon="17.750826">
        <ele>27.5349</ele>
        <time>2012-05-11T21:18:20Z</time>
      </trkpt>
      <trkpt lat="59.9715016" lon="17.7510127">
        <ele>31.8607</ele>
        <time>2012-05-11T21:18:26Z</time>
      </trkpt>
      <trkpt lat="59.9713698" lon="17.7511682">
        <ele>29.4575</ele>
        <time>2012-05-11T21:18:32Z</time>
      </trkpt>
      <trkpt lat="59.9712504" lon="17.7513633">
        <ele>32.8223</ele>
        <time>2012-05-11T21:18:39Z</time>
      </trkpt>
      <trkpt lat="59.9712037" lon="17.7514046">
        <ele>33.7834</ele>
        <time>2012-05-11T21:18:41Z</time>
      </trkpt>
      <trkpt lat="59.9710938" lon="17.7515856">
        <ele>37.6287</ele>
        <time>2012-05-11T21:18:48Z</time>
      </trkpt>
      <trkpt lat="59.9709426" lon="17.751795">
        <ele>40.5128</ele>
        <time>2012-05-11T21:18:55Z</time>
      </trkpt>
      <trkpt lat="59.9708068" lon="17.7519824">
        <ele>35.7061</ele>
        <time>2012-05-11T21:19:01Z</time>
      </trkpt>
      <trkpt lat="59.9707228" lon="17.7521687">
        <ele>33.7834</ele>
        <time>2012-05-11T21:19:06Z</time>
      </trkpt>
      <trkpt lat="59.9705889" lon="17.7523547">
        <ele>29.4575</ele>
        <time>2012-05-11T21:19:13Z</time>
      </trkpt>
      <trkpt lat="59.9705014" lon="17.7525609">
        <ele>28.4962</ele>
        <time>2012-05-11T21:19:18Z</time>
      </trkpt>
      <trkpt lat="59.9703868" lon="17.7527537">
        <ele>25.1317</ele>
        <time>2012-05-11T21:19:24Z</time>
      </trkpt>
      <trkpt lat="59.9702909" lon="17.7529894">
        <ele>24.651</ele>
        <time>2012-05-11T21:19:30Z</time>
      </trkpt>
      <trkpt lat="59.9702128" lon="17.7532324">
        <ele>23.6896</ele>
        <time>2012-05-11T21:19:36Z</time>
      </trkpt>
      <trkpt lat="59.9701284" lon="17.7535481">
        <ele>24.651</ele>
        <time>2012-05-11T21:19:43Z</time>
      </trkpt>
      <trkpt lat="59.9699943" lon="17.7538238">
        <ele>24.1703</ele>
        <time>2012-05-11T21:19:51Z</time>
      </trkpt>
      <trkpt lat="59.9699036" lon="17.7540394">
        <ele>23.6896</ele>
        <time>2012-05-11T21:19:57Z</time>
      </trkpt>
      <trkpt lat="59.9698139" lon="17.7541833">
        <ele>22.2476</ele>
        <time>2012-05-11T21:20:02Z</time>
      </trkpt>
      <trkpt lat="59.9697098" lon="17.7543896">
        <ele>22.2476</ele>
        <time>2012-05-11T21:20:08Z</time>
      </trkpt>
      <trkpt lat="59.969593" lon="17.7546403">
        <ele>24.1703</ele>
        <time>2012-05-11T21:20:15Z</time>
      </trkpt>
      <trkpt lat="59.9694944" lon="17.7548921">
        <ele>26.0929</ele>
        <time>2012-05-11T21:20:21Z</time>
      </trkpt>
      <trkpt lat="59.9693918" lon="17.7551026">
        <ele>27.0543</ele>
        <time>2012-05-11T21:20:27Z</time>
      </trkpt>
      <trkpt lat="59.9693041" lon="17.7552917">
        <ele>28.9769</ele>
        <time>2012-05-11T21:20:32Z</time>
      </trkpt>
      <trkpt lat="59.9692855" lon="17.7553272">
        <ele>28.4962</ele>
        <time>2012-05-11T21:20:33Z</time>
      </trkpt>
      <trkpt lat="59.9692679" lon="17.7553602">
        <ele>28.9769</ele>
        <time>2012-05-11T21:20:34Z</time>
      </trkpt>
      <trkpt lat="59.9692292" lon="17.7552691">
        <ele>28.0155</ele>
        <time>2012-05-11T21:20:38Z</time>
      </trkpt>
      <trkpt lat="59.9692774" lon="17.7550449">
        <ele>28.0155</ele>
        <time>2012-05-11T21:20:43Z</time>
      </trkpt>
      <trkpt lat="59.9693371" lon="17.7549022">
        <ele>28.0155</ele>
        <time>2012-05-11T21:20:47Z</time>
      </trkpt>
      <trkpt lat="59.9694633" lon="17.7546983">
        <ele>30.4188</ele>
        <time>2012-05-11T21:20:53Z</time>
      </trkpt>
      <trkpt lat="59.969569" lon="17.7544598">
        <ele>28.4962</ele>
        <time>2012-05-11T21:20:59Z</time>
      </trkpt>
      <trkpt lat="59.9696807" lon="17.7542569">
        <ele>28.4962</ele>
        <time>2012-05-11T21:21:05Z</time>
      </trkpt>
      <trkpt lat="59.9698144" lon="17.7540487">
        <ele>32.8223</ele>
        <time>2012-05-11T21:21:11Z</time>
      </trkpt>
      <trkpt lat="59.9699367" lon="17.7538493">
        <ele>35.2255</ele>
        <time>2012-05-11T21:21:17Z</time>
      </trkpt>
      <trkpt lat="59.9700639" lon="17.7536017">
        <ele>34.7449</ele>
        <time>2012-05-11T21:21:24Z</time>
      </trkpt>
      <trkpt lat="59.970162" lon="17.7534591">
        <ele>31.8607</ele>
        <time>2012-05-11T21:21:29Z</time>
      </trkpt>
      <trkpt lat="59.9702097" lon="17.7532503">
        <ele>29.9381</ele>
        <time>2012-05-11T21:21:34Z</time>
      </trkpt>
      <trkpt lat="59.9702906" lon="17.7530342">
        <ele>30.8995</ele>
        <time>2012-05-11T21:21:39Z</time>
      </trkpt>
      <trkpt lat="59.9703319" lon="17.752806">
        <ele>29.9381</ele>
        <time>2012-05-11T21:21:44Z</time>
      </trkpt>
      <trkpt lat="59.9704333" lon="17.7526354">
        <ele>31.3801</ele>
        <time>2012-05-11T21:21:49Z</time>
      </trkpt>
      <trkpt lat="59.9705423" lon="17.7524241">
        <ele>31.3801</ele>
        <time>2012-05-11T21:21:55Z</time>
      </trkpt>
      <trkpt lat="59.9705526" lon="17.7523884">
        <ele>30.8995</ele>
        <time>2012-05-11T21:21:56Z</time>
      </trkpt>
      <trkpt lat="59.9705552" lon="17.7521061">
        <ele>26.5736</ele>
        <time>2012-05-11T21:22:02Z</time>
      </trkpt>
      <trkpt lat="59.9705961" lon="17.7519968">
        <ele>26.5736</ele>
        <time>2012-05-11T21:22:05Z</time>
      </trkpt>
      <trkpt lat="59.9706303" lon="17.7518152">
        <ele>23.209</ele>
        <time>2012-05-11T21:22:10Z</time>
      </trkpt>
      <trkpt lat="59.9707127" lon="17.7515789">
        <ele>21.2864</ele>
        <time>2012-05-11T21:22:17Z</time>
      </trkpt>
      <trkpt lat="59.9708404" lon="17.7515015">
        <ele>24.1703</ele>
        <time>2012-05-11T21:22:21Z</time>
      </trkpt>
      <trkpt lat="59.970864" lon="17.7514812">
        <ele>24.1703</ele>
        <time>2012-05-11T21:22:22Z</time>
      </trkpt>
      <trkpt lat="59.9710679" lon="17.7512912">
        <ele>30.4188</ele>
        <time>2012-05-11T21:22:30Z</time>
      </trkpt>
      <trkpt lat="59.9712188" lon="17.7512271">
        <ele>27.5349</ele>
        <time>2012-05-11T21:22:36Z</time>
      </trkpt>
      <trkpt lat="59.9714406" lon="17.7510038">
        <ele>38.1094</ele>
        <time>2012-05-11T21:22:44Z</time>
      </trkpt>
      <trkpt lat="59.9715162" lon="17.7508137">
        <ele>34.2642</ele>
        <time>2012-05-11T21:22:50Z</time>
      </trkpt>
      <trkpt lat="59.9716517" lon="17.750636">
        <ele>38.1094</ele>
        <time>2012-05-11T21:22:56Z</time>
      </trkpt>
      <trkpt lat="59.9717833" lon="17.7504765">
        <ele>42.916</ele>
        <time>2012-05-11T21:23:01Z</time>
      </trkpt>
      <trkpt lat="59.9718692" lon="17.7503376">
        <ele>40.9934</ele>
        <time>2012-05-11T21:23:06Z</time>
      </trkpt>
      <trkpt lat="59.9719533" lon="17.7501658">
        <ele>40.9934</ele>
        <time>2012-05-11T21:23:11Z</time>
      </trkpt>
      <trkpt lat="59.972007" lon="17.74989">
        <ele>39.0707</ele>
        <time>2012-05-11T21:23:17Z</time>
      </trkpt>
      <trkpt lat="59.9720853" lon="17.7496368">
        <ele>38.5901</ele>
        <time>2012-05-11T21:23:24Z</time>
      </trkpt>
      <trkpt lat="59.9721532" lon="17.7494264">
        <ele>37.6287</ele>
        <time>2012-05-11T21:23:30Z</time>
      </trkpt>
      <trkpt lat="59.9722506" lon="17.7492411">
        <ele>40.5128</ele>
        <time>2012-05-11T21:23:35Z</time>
      </trkpt>
      <trkpt lat="59.9723286" lon="17.7490028">
        <ele>35.2255</ele>
        <time>2012-05-11T21:23:41Z</time>
      </trkpt>
      <trkpt lat="59.9723926" lon="17.7488353">
        <ele>29.9381</ele>
        <time>2012-05-11T21:23:46Z</time>
      </trkpt>
      <trkpt lat="59.9725046" lon="17.7485854">
        <ele>29.9381</ele>
        <time>2012-05-11T21:23:53Z</time>
      </trkpt>
      <trkpt lat="59.9725931" lon="17.7484179">
        <ele>26.5736</ele>
        <time>2012-05-11T21:23:58Z</time>
      </trkpt>
      <trkpt lat="59.9726861" lon="17.7482261">
        <ele>24.651</ele>
        <time>2012-05-11T21:24:03Z</time>
      </trkpt>
      <trkpt lat="59.972807" lon="17.7480168">
        <ele>28.0155</ele>
        <time>2012-05-11T21:24:09Z</time>
      </trkpt>
      <trkpt lat="59.9729531" lon="17.7478321">
        <ele>30.8995</ele>
        <time>2012-05-11T21:24:15Z</time>
      </trkpt>
      <trkpt lat="59.973082" lon="17.7476816">
        <ele>29.9381</ele>
        <time>2012-05-11T21:24:21Z</time>
      </trkpt>
      <trkpt lat="59.9732205" lon="17.7475632">
        <ele>30.4188</ele>
        <time>2012-05-11T21:24:27Z</time>
      </trkpt>
      <trkpt lat="59.9733814" lon="17.7474415">
        <ele>29.9381</ele>
        <time>2012-05-11T21:24:34Z</time>
      </trkpt>
      <trkpt lat="59.9734826" lon="17.7472981">
        <ele>25.6123</ele>
        <time>2012-05-11T21:24:40Z</time>
      </trkpt>
      <trkpt lat="59.9735591" lon="17.7471793">
        <ele>20.8057</ele>
        <time>2012-05-11T21:24:46Z</time>
      </trkpt>
      <trkpt lat="59.973658" lon="17.7470823">
        <ele>20.325</ele>
        <time>2012-05-11T21:24:51Z</time>
      </trkpt>
      <trkpt lat="59.9737672" lon="17.74698">
        <ele>19.3638</ele>
        <time>2012-05-11T21:24:56Z</time>
      </trkpt>
      <trkpt lat="59.9738477" lon="17.7468266">
        <ele>15.999</ele>
        <time>2012-05-11T21:25:01Z</time>
      </trkpt>
      <trkpt lat="59.9740106" lon="17.7466416">
        <ele>21.767</ele>
        <time>2012-05-11T21:25:07Z</time>
      </trkpt>
      <trkpt lat="59.9741888" lon="17.7464897">
        <ele>30.8995</ele>
        <time>2012-05-11T21:25:13Z</time>
      </trkpt>
      <trkpt lat="59.9743109" lon="17.7462895">
        <ele>31.8607</ele>
        <time>2012-05-11T21:25:20Z</time>
      </trkpt>
      <trkpt lat="59.9744729" lon="17.7460802">
        <ele>36.1868</ele>
        <time>2012-05-11T21:25:27Z</time>
      </trkpt>
      <trkpt lat="59.9745781" lon="17.7458666">
        <ele>36.1868</ele>
        <time>2012-05-11T21:25:33Z</time>
      </trkpt>
      <trkpt lat="59.9747034" lon="17.7456329">
        <ele>33.3029</ele>
        <time>2012-05-11T21:25:41Z</time>
      </trkpt>
      <trkpt lat="59.9747253" lon="17.7456109">
        <ele>33.3029</ele>
        <time>2012-05-11T21:25:42Z</time>
      </trkpt>
      <trkpt lat="59.9748381" lon="17.7453659">
        <ele>33.3029</ele>
        <time>2012-05-11T21:25:49Z</time>
      </trkpt>
      <trkpt lat="59.9749591" lon="17.7450944">
        <ele>35.7061</ele>
        <time>2012-05-11T21:25:56Z</time>
      </trkpt>
      <trkpt lat="59.9750544" lon="17.7448083">
        <ele>36.6675</ele>
        <time>2012-05-11T21:26:03Z</time>
      </trkpt>
      <trkpt lat="59.9751619" lon="17.7445249">
        <ele>40.0321</ele>
        <time>2012-05-11T21:26:10Z</time>
      </trkpt>
      <trkpt lat="59.9752074" lon="17.7442816">
        <ele>40.5128</ele>
        <time>2012-05-11T21:26:15Z</time>
      </trkpt>
      <trkpt lat="59.9752725" lon="17.743948">
        <ele>39.5513</ele>
        <time>2012-05-11T21:26:22Z</time>
      </trkpt>
      <trkpt lat="59.975339" lon="17.7436195">
        <ele>39.5513</ele>
        <time>2012-05-11T21:26:29Z</time>
      </trkpt>
      <trkpt lat="59.9753722" lon="17.743321">
        <ele>39.0707</ele>
        <time>2012-05-11T21:26:35Z</time>
      </trkpt>
      <trkpt lat="59.9753999" lon="17.743073">
        <ele>38.5901</ele>
        <time>2012-05-11T21:26:40Z</time>
      </trkpt>
      <trkpt lat="59.9754829" lon="17.74274">
        <ele>39.0707</ele>
        <time>2012-05-11T21:26:47Z</time>
      </trkpt>
      <trkpt lat="59.9755147" lon="17.7425572">
        <ele>38.5901</ele>
        <time>2012-05-11T21:26:51Z</time>
      </trkpt>
      <trkpt lat="59.9755162" lon="17.7425039">
        <ele>38.5901</ele>
        <time>2012-05-11T21:26:52Z</time>
      </trkpt>
      <trkpt lat="59.9755633" lon="17.7422727">
        <ele>39.0707</ele>
        <time>2012-05-11T21:26:57Z</time>
      </trkpt>
      <trkpt lat="59.9755764" lon="17.7420941">
        <ele>38.1094</ele>
        <time>2012-05-11T21:27:00Z</time>
      </trkpt>
      <trkpt lat="59.9756141" lon="17.7419102">
        <ele>38.5901</ele>
        <time>2012-05-11T21:27:04Z</time>
      </trkpt>
      <trkpt lat="59.9756597" lon="17.7416842">
        <ele>38.1094</ele>
        <time>2012-05-11T21:27:09Z</time>
      </trkpt>
      <trkpt lat="59.9757033" lon="17.7414634">
        <ele>37.6287</ele>
        <time>2012-05-11T21:27:14Z</time>
      </trkpt>
      <trkpt lat="59.9757777" lon="17.7411996">
        <ele>38.5901</ele>
        <time>2012-05-11T21:27:20Z</time>
      </trkpt>
      <trkpt lat="59.9758218" lon="17.741027">
        <ele>38.1094</ele>
        <time>2012-05-11T21:27:24Z</time>
      </trkpt>
      <trkpt lat="59.97587" lon="17.7408944">
        <ele>37.6287</ele>
        <time>2012-05-11T21:27:28Z</time>
      </trkpt>
      <trkpt lat="59.9758781" lon="17.7408017">
        <ele>37.6287</ele>
        <time>2012-05-11T21:27:30Z</time>
      </trkpt>
      <trkpt lat="59.9759076" lon="17.7406751">
        <ele>38.1094</ele>
        <time>2012-05-11T21:27:33Z</time>
      </trkpt>
      <trkpt lat="59.9759845" lon="17.7404509">
        <ele>39.0707</ele>
        <time>2012-05-11T21:27:39Z</time>
      </trkpt>
      <trkpt lat="59.9760104" lon="17.7403655">
        <ele>40.0321</ele>
        <time>2012-05-11T21:27:41Z</time>
      </trkpt>
      <trkpt lat="59.9760549" lon="17.7401881">
        <ele>40.5128</ele>
        <time>2012-05-11T21:27:45Z</time>
      </trkpt>
      <trkpt lat="59.9760865" lon="17.740105">
        <ele>40.9934</ele>
        <time>2012-05-11T21:27:47Z</time>
      </trkpt>
      <trkpt lat="59.9761689" lon="17.7398911">
        <ele>41.474</ele>
        <time>2012-05-11T21:27:52Z</time>
      </trkpt>
      <trkpt lat="59.9761941" lon="17.7398085">
        <ele>41.474</ele>
        <time>2012-05-11T21:27:54Z</time>
      </trkpt>
      <trkpt lat="59.9762932" lon="17.7395974">
        <ele>41.474</ele>
        <time>2012-05-11T21:28:00Z</time>
      </trkpt>
      <trkpt lat="59.9764262" lon="17.7394298">
        <ele>41.474</ele>
        <time>2012-05-11T21:28:06Z</time>
      </trkpt>
      <trkpt lat="59.9765701" lon="17.7393039">
        <ele>40.0321</ele>
        <time>2012-05-11T21:28:12Z</time>
      </trkpt>
      <trkpt lat="59.9767199" lon="17.7392615">
        <ele>38.5901</ele>
        <time>2012-05-11T21:28:18Z</time>
      </trkpt>
      <trkpt lat="59.9768414" lon="17.7392228">
        <ele>37.1481</ele>
        <time>2012-05-11T21:28:23Z</time>
      </trkpt>
      <trkpt lat="59.9769498" lon="17.7392049">
        <ele>36.6675</ele>
        <time>2012-05-11T21:28:28Z</time>
      </trkpt>
      <trkpt lat="59.977035" lon="17.7391559">
        <ele>37.6287</ele>
        <time>2012-05-11T21:28:32Z</time>
      </trkpt>
      <trkpt lat="59.9771893" lon="17.7390403">
        <ele>37.1481</ele>
        <time>2012-05-11T21:28:39Z</time>
      </trkpt>
      <trkpt lat="59.9773231" lon="17.7390056">
        <ele>37.1481</ele>
        <time>2012-05-11T21:28:45Z</time>
      </trkpt>
      <trkpt lat="59.977425" lon="17.7389663">
        <ele>37.1481</ele>
        <time>2012-05-11T21:28:50Z</time>
      </trkpt>
      <trkpt lat="59.9775105" lon="17.7389389">
        <ele>36.6675</ele>
        <time>2012-05-11T21:28:54Z</time>
      </trkpt>
      <trkpt lat="59.9775978" lon="17.738914">
        <ele>36.6675</ele>
        <time>2012-05-11T21:28:58Z</time>
      </trkpt>
      <trkpt lat="59.9777165" lon="17.738943">
        <ele>36.6675</ele>
        <time>2012-05-11T21:29:03Z</time>
      </trkpt>
      <trkpt lat="59.9778535" lon="17.7390196">
        <ele>37.1481</ele>
        <time>2012-05-11T21:29:09Z</time>
      </trkpt>
      <trkpt lat="59.9779481" lon="17.739074">
        <ele>36.1868</ele>
        <time>2012-05-11T21:29:13Z</time>
      </trkpt>
      <trkpt lat="59.9780932" lon="17.7391347">
        <ele>35.2255</ele>
        <time>2012-05-11T21:29:20Z</time>
      </trkpt>
      <trkpt lat="59.9782353" lon="17.7391835">
        <ele>34.2642</ele>
        <time>2012-05-11T21:29:26Z</time>
      </trkpt>
      <trkpt lat="59.9783383" lon="17.7391992">
        <ele>33.3029</ele>
        <time>2012-05-11T21:29:31Z</time>
      </trkpt>
      <trkpt lat="59.9784652" lon="17.7392322">
        <ele>33.7834</ele>
        <time>2012-05-11T21:29:36Z</time>
      </trkpt>
      <trkpt lat="59.9785796" lon="17.73926">
        <ele>33.7834</ele>
        <time>2012-05-11T21:29:41Z</time>
      </trkpt>
      <trkpt lat="59.9787118" lon="17.7392937">
        <ele>34.2642</ele>
        <time>2012-05-11T21:29:46Z</time>
      </trkpt>
      <trkpt lat="59.9788247" lon="17.7393192">
        <ele>36.1868</ele>
        <time>2012-05-11T21:29:50Z</time>
      </trkpt>
      <trkpt lat="59.978853" lon="17.7393352">
        <ele>36.1868</ele>
        <time>2012-05-11T21:29:51Z</time>
      </trkpt>
    </trkseg>
  </trk>
</gpx>